Time;durP1;ratioP1;P1;durP2;ratioP2;P2;SDS_P1;SDS_P2;PMS_P1;PMS_P2;Temp;Humidity;BMP_temperature;BMP_pressure;BME280_temperature;BME280_humidity;BME280_pressure;Samples;Min_cycle;Max_cycle;Signal;HPM_P1;HPM_P2
2023/10/05 00:03:46;;;;;;;13.90;9.02;;;19.10;99.90;;;;;;4989708;28;20035;-74
2023/10/05 00:06:14;;;;;;;12.13;9.23;;;19.10;99.90;;;;;;4992002;28;20034;-73
2023/10/05 00:08:49;;;;;;;16.52;9.07;;;19.10;99.90;;;;;;4989087;28;21812;-73
2023/10/05 00:11:30;;;;;;;15.48;8.90;;;19.10;99.90;;;;;;4989089;28;20120;-73
2023/10/05 00:13:58;;;;;;;14.00;8.73;;;19.10;99.90;;;;;;4989713;28;20088;-73
2023/10/05 00:16:37;;;;;;;11.77;8.32;;;19.00;99.90;;;;;;4989383;28;20030;-73
2023/10/05 00:19:09;;;;;;;15.00;10.32;;;18.90;99.90;;;;;;4991542;28;20425;-73
2023/10/05 00:21:35;;;;;;;14.82;8.13;;;18.90;99.90;;;;;;4989513;28;20104;-73
2023/10/05 00:24:03;;;;;;;14.73;9.07;;;18.90;99.90;;;;;;4984786;28;20034;-74
2023/10/05 00:26:32;;;;;;;16.75;8.68;;;19.00;99.90;;;;;;4990023;28;20177;-73
2023/10/05 00:29:18;;;;;;;14.98;9.40;;;18.80;99.90;;;;;;4988435;28;20037;-73
2023/10/05 00:31:45;;;;;;;13.73;9.10;;;18.80;99.90;;;;;;4989007;28;20042;-73
2023/10/05 00:34:32;;;;;;;12.20;7.90;;;18.70;99.90;;;;;;4992523;28;20030;-73
2023/10/05 00:36:59;;;;;;;12.90;7.95;;;18.50;99.90;;;;;;4992868;28;20054;-73
2023/10/05 00:39:31;;;;;;;12.63;8.98;;;18.50;99.90;;;;;;4991175;28;20026;-74
2023/10/05 00:44:30;;;;;;;13.10;8.18;;;18.60;99.90;;;;;;4993946;28;20031;-74
2023/10/05 00:46:59;;;;;;;11.98;8.93;;;18.60;99.90;;;;;;4989299;28;20031;-75
2023/10/05 00:49:30;;;;;;;12.38;8.13;;;18.70;99.90;;;;;;4992644;28;20023;-75
2023/10/05 00:52:15;;;;;;;10.80;7.18;;;18.70;99.90;;;;;;4989517;28;20140;-74
2023/10/05 00:54:54;;;;;;;11.55;7.55;;;18.80;99.90;;;;;;4989961;28;20030;-74
2023/10/05 00:57:22;;;;;;;17.10;8.35;;;18.80;99.90;;;;;;4990233;28;20022;-74
2023/10/05 01:00:43;;;;;;;16.00;7.88;;;18.90;99.90;;;;;;4989499;28;20129;-74
2023/10/05 01:02:39;;;;;;;13.88;7.97;;;19.00;99.90;;;;;;4988485;28;20026;-74
2023/10/05 01:05:25;;;;;;;12.52;8.45;;;18.90;99.90;;;;;;5000231;28;20038;-74
2023/10/05 01:07:56;;;;;;;12.00;8.77;;;18.90;99.90;;;;;;4995956;28;20431;-75
2023/10/05 01:12:48;;;;;;;12.85;9.07;;;18.80;99.90;;;;;;4988117;28;20137;-75
2023/10/05 01:15:19;;;;;;;13.85;8.73;;;18.80;99.90;;;;;;4994336;28;20026;-75
2023/10/05 01:17:56;;;;;;;13.95;9.38;;;18.80;99.90;;;;;;4991828;28;20034;-74
2023/10/05 01:22:56;;;;;;;13.52;10.13;;;18.80;99.90;;;;;;4992421;28;20042;-75
2023/10/05 01:25:22;;;;;;;12.27;8.57;;;18.70;99.90;;;;;;4985615;28;20535;-75
2023/10/05 01:27:50;;;;;;;16.77;9.77;;;18.60;99.90;;;;;;4989213;28;20038;-74
2023/10/05 01:30:16;;;;;;;14.10;9.50;;;18.60;99.90;;;;;;4988810;28;20500;-74
2023/10/05 01:32:42;;;;;;;12.65;8.93;;;18.50;99.90;;;;;;4989909;28;20069;-74
2023/10/05 01:35:13;;;;;;;14.52;8.57;;;18.50;99.90;;;;;;4987591;28;20035;-75
2023/10/05 01:37:45;;;;;;;13.68;9.13;;;18.40;99.90;;;;;;4995807;28;20033;-75
2023/10/05 01:40:36;;;;;;;15.23;8.75;;;18.40;99.90;;;;;;4988118;28;20077;-74
2023/10/05 01:42:59;;;;;;;15.40;9.30;;;18.30;99.90;;;;;;4990907;28;20157;-74
2023/10/05 01:45:25;;;;;;;13.40;8.23;;;18.20;99.90;;;;;;4984432;28;20559;-75
2023/10/05 01:47:52;;;;;;;14.43;8.32;;;18.20;99.90;;;;;;4994571;28;20476;-74
2023/10/05 01:50:19;;;;;;;13.02;8.95;;;18.20;99.90;;;;;;4988252;28;20030;-74
2023/10/05 01:53:39;;;;;;;13.65;8.13;;;18.20;99.90;;;;;;4986824;28;20491;-75
2023/10/05 01:55:39;;;;;;;16.67;8.48;;;18.20;99.90;;;;;;4985019;28;20152;-75
2023/10/05 01:58:09;;;;;;;12.35;8.02;;;18.20;99.90;;;;;;4988835;28;20473;-74
2023/10/05 02:00:38;;;;;;;12.50;8.00;;;18.10;99.90;;;;;;4989486;28;20076;-74
2023/10/05 02:03:09;;;;;;;13.93;8.40;;;17.90;99.90;;;;;;4994272;28;20033;-74
2023/10/05 02:05:36;;;;;;;16.42;9.85;;;17.90;99.90;;;;;;4992225;28;20030;-73
2023/10/05 02:08:03;;;;;;;13.35;9.15;;;17.90;99.90;;;;;;4992191;28;20057;-73
2023/10/05 02:10:32;;;;;;;12.52;8.93;;;17.90;99.90;;;;;;4994287;28;20049;-73
2023/10/05 02:13:00;;;;;;;11.82;7.90;;;17.90;99.90;;;;;;4989738;28;20117;-73
2023/10/05 02:15:30;;;;;;;12.75;8.88;;;17.90;99.90;;;;;;4992541;28;20081;-73
2023/10/05 02:17:59;;;;;;;13.15;8.90;;;18.00;99.90;;;;;;4993237;28;20042;-73
2023/10/05 02:20:38;;;;;;;12.93;8.18;;;17.90;99.90;;;;;;4996484;28;20026;-73
2023/10/05 02:23:17;;;;;;;12.60;8.15;;;18.00;99.90;;;;;;4992440;28;20436;-73
2023/10/05 02:25:43;;;;;;;13.75;8.80;;;18.00;99.90;;;;;;4989351;28;20084;-73
2023/10/05 02:28:09;;;;;;;13.93;9.77;;;18.00;99.90;;;;;;4999628;28;20022;-72
2023/10/05 02:30:36;;;;;;;13.45;8.52;;;18.00;99.90;;;;;;4993578;28;20120;-73
2023/10/05 02:33:04;;;;;;;11.13;7.90;;;18.00;99.90;;;;;;4982682;28;20443;-73
2023/10/05 02:35:32;;;;;;;13.30;8.00;;;18.00;99.90;;;;;;5002099;28;20069;-73
2023/10/05 02:37:59;;;;;;;12.35;8.43;;;17.90;99.90;;;;;;4991758;28;20484;-73
2023/10/05 02:40:35;;;;;;;13.57;8.95;;;17.90;99.90;;;;;;4991332;28;20026;-73
2023/10/05 02:43:07;;;;;;;12.43;8.25;;;17.90;99.90;;;;;;4992405;28;20477;-74
2023/10/05 02:45:37;;;;;;;13.30;8.82;;;17.90;99.90;;;;;;4997839;28;20798;-73
2023/10/05 02:48:06;;;;;;;16.08;8.60;;;17.80;99.90;;;;;;4991258;28;20041;-73
2023/10/05 02:50:37;;;;;;;14.75;9.15;;;17.70;99.90;;;;;;4990375;28;20038;-73
2023/10/05 02:53:06;;;;;;;11.35;8.10;;;17.70;99.90;;;;;;4990937;28;20043;-73
2023/10/05 02:55:36;;;;;;;14.15;8.93;;;17.60;99.90;;;;;;4992555;28;20117;-73
2023/10/05 02:58:05;;;;;;;12.93;9.25;;;17.60;99.90;;;;;;4992137;28;20109;-73
2023/10/05 03:00:33;;;;;;;14.20;9.95;;;17.60;99.90;;;;;;4992163;28;20127;-73
2023/10/05 03:03:03;;;;;;;11.73;8.80;;;17.50;99.90;;;;;;4995956;28;20035;-73
2023/10/05 03:05:32;;;;;;;13.23;9.13;;;17.50;99.90;;;;;;4985500;28;20061;-73
2023/10/05 03:07:58;;;;;;;11.60;8.45;;;17.40;99.90;;;;;;4989344;28;20034;-73
2023/10/05 03:10:24;;;;;;;14.57;9.95;;;17.40;99.90;;;;;;4984463;28;20113;-73
2023/10/05 03:12:50;;;;;;;12.38;8.35;;;17.40;99.90;;;;;;4991267;28;20117;-73
2023/10/05 03:15:17;;;;;;;14.75;8.95;;;17.30;99.90;;;;;;4985804;28;20452;-73
2023/10/05 03:17:45;;;;;;;13.15;9.05;;;17.30;99.90;;;;;;4982314;28;20038;-74
2023/10/05 03:20:17;;;;;;;14.13;8.77;;;17.30;99.90;;;;;;4983823;28;20050;-72
2023/10/05 03:22:46;;;;;;;14.68;9.05;;;17.40;99.90;;;;;;4986266;28;20058;-73
2023/10/05 03:25:14;;;;;;;12.77;8.90;;;17.50;99.90;;;;;;4994650;28;20030;-73
2023/10/05 03:27:40;;;;;;;12.30;8.88;;;17.50;99.90;;;;;;4989459;28;20532;-72
2023/10/05 03:30:13;;;;;;;13.73;9.80;;;17.40;99.90;;;;;;4986394;28;20520;-72
2023/10/05 03:32:40;;;;;;;11.85;8.40;;;17.40;99.90;;;;;;4985542;28;20126;-73
2023/10/05 03:35:08;;;;;;;13.60;8.75;;;17.40;99.90;;;;;;4985804;28;20041;-71
2023/10/05 03:37:34;;;;;;;11.73;8.48;;;17.40;99.90;;;;;;4987021;28;20072;-71
2023/10/05 03:42:29;;;;;;;12.07;8.48;;;17.40;99.90;;;;;;4988915;28;20035;-72
2023/10/05 03:45:04;;;;;;;14.07;8.98;;;17.30;99.90;;;;;;4984485;28;20026;-72
2023/10/05 03:47:30;;;;;;;17.27;9.18;;;17.30;99.90;;;;;;4985453;28;20034;-72
2023/10/05 03:49:57;;;;;;;14.43;9.05;;;17.20;99.90;;;;;;4988042;28;20053;-72
2023/10/05 03:52:29;;;;;;;15.98;9.98;;;17.20;99.90;;;;;;4995817;28;20038;-74
2023/10/05 03:55:01;;;;;;;15.98;9.68;;;17.20;99.90;;;;;;4984966;28;20465;-72
2023/10/05 03:57:31;;;;;;;10.52;8.30;;;17.20;99.90;;;;;;4985592;28;21099;-72
2023/10/05 04:00:15;;;;;;;16.88;9.02;;;17.10;99.90;;;;;;4981844;28;20053;-72
2023/10/05 04:02:43;;;;;;;13.63;9.68;;;17.20;99.90;;;;;;4981926;28;20037;-72
2023/10/05 04:05:10;;;;;;;12.48;9.20;;;17.20;99.90;;;;;;4976505;28;20061;-71
2023/10/05 04:07:36;;;;;;;15.77;10.05;;;17.10;99.90;;;;;;4983548;28;20049;-72
2023/10/05 04:10:03;;;;;;;15.52;9.43;;;17.00;99.90;;;;;;4982221;28;20081;-72
2023/10/05 04:12:32;;;;;;;15.20;9.20;;;17.00;99.90;;;;;;4988838;28;20049;-72
2023/10/05 04:15:00;;;;;;;14.02;9.40;;;17.00;99.90;;;;;;4981836;28;20489;-72
2023/10/05 04:17:26;;;;;;;14.68;10.13;;;17.00;99.90;;;;;;4993675;28;20026;-72
2023/10/05 04:19:52;;;;;;;15.00;9.65;;;16.90;99.90;;;;;;4984967;28;20122;-71
2023/10/05 04:22:18;;;;;;;14.73;9.35;;;16.90;99.90;;;;;;4981573;28;20342;-72
2023/10/05 04:24:45;;;;;;;13.93;9.07;;;16.90;99.90;;;;;;4986683;28;20045;-72
2023/10/05 04:27:10;;;;;;;15.43;9.43;;;16.80;99.90;;;;;;4983109;28;20470;-72
2023/10/05 04:29:37;;;;;;;12.07;7.95;;;16.80;99.90;;;;;;4984087;28;20121;-71
2023/10/05 04:32:06;;;;;;;13.45;9.50;;;16.80;99.90;;;;;;4984744;28;20056;-72
2023/10/05 04:34:32;;;;;;;13.75;9.43;;;16.80;99.90;;;;;;4983644;28;20084;-72
2023/10/05 04:36:58;;;;;;;14.15;9.43;;;16.80;99.90;;;;;;4987091;28;20061;-72
2023/10/05 04:39:32;;;;;;;13.48;9.70;;;16.80;99.90;;;;;;4986430;28;20473;-72
2023/10/05 04:42:05;;;;;;;12.25;8.68;;;16.80;99.90;;;;;;4985895;28;20540;-72
2023/10/05 04:44:31;;;;;;;18.35;9.82;;;16.80;99.90;;;;;;4989003;28;20030;-72
2023/10/05 04:46:56;;;;;;;15.52;9.85;;;16.80;99.90;;;;;;4989762;28;20034;-72
2023/10/05 04:49:24;;;;;;;14.77;10.10;;;16.90;99.90;;;;;;4984229;28;22175;-71
2023/10/05 04:51:51;;;;;;;16.92;9.95;;;16.80;99.90;;;;;;4988620;28;20096;-72
2023/10/05 04:54:21;;;;;;;17.13;10.18;;;16.90;99.90;;;;;;4987183;28;20054;-72
2023/10/05 04:57:02;;;;;;;17.48;10.70;;;16.80;99.90;;;;;;4987060;28;20025;-72
2023/10/05 04:59:47;;;;;;;20.65;9.27;;;16.80;99.90;;;;;;4972990;28;20527;-72
2023/10/05 05:02:26;;;;;;;17.73;10.85;;;16.80;99.90;;;;;;4989087;28;20449;-71
2023/10/05 05:07:21;;;;;;;14.85;10.38;;;16.90;99.90;;;;;;4993479;28;20473;-72
2023/10/05 05:09:47;;;;;;;15.27;10.50;;;16.90;99.90;;;;;;4982958;28;20048;-72
2023/10/05 05:12:17;;;;;;;18.63;10.77;;;16.90;99.90;;;;;;4987503;28;20033;-71
2023/10/05 05:14:45;;;;;;;14.27;9.77;;;16.90;99.90;;;;;;4982701;28;20030;-72
2023/10/05 05:17:18;;;;;;;14.32;10.50;;;16.90;99.90;;;;;;4984615;28;20103;-71
2023/10/05 05:19:44;;;;;;;15.05;10.02;;;16.80;99.90;;;;;;4985119;28;20125;-72
2023/10/05 05:22:13;;;;;;;15.55;10.93;;;16.90;99.90;;;;;;4983881;28;20030;-73
2023/10/05 05:24:41;;;;;;;19.27;10.50;;;16.90;99.90;;;;;;4985743;28;20045;-72
2023/10/05 05:27:19;;;;;;;16.52;10.45;;;16.80;99.90;;;;;;4987827;28;20117;-72
2023/10/05 05:29:46;;;;;;;17.30;9.93;;;16.80;99.90;;;;;;4980498;28;21296;-72
2023/10/05 05:32:15;;;;;;;15.65;10.00;;;16.80;99.90;;;;;;4983900;28;20034;-72
2023/10/05 05:34:41;;;;;;;14.55;9.98;;;16.70;99.90;;;;;;4982650;28;20035;-72
2023/10/05 05:37:13;;;;;;;14.25;9.85;;;16.70;99.90;;;;;;4987055;28;20027;-72
2023/10/05 05:39:40;;;;;;;14.73;11.20;;;16.70;99.90;;;;;;4987810;28;20026;-72
2023/10/05 05:42:18;;;;;;;15.95;10.93;;;16.80;99.90;;;;;;4995945;28;20428;-72
2023/10/05 05:44:44;;;;;;;14.90;10.35;;;16.70;99.90;;;;;;4987782;28;20057;-72
2023/10/05 05:47:10;;;;;;;16.80;10.30;;;16.70;99.90;;;;;;4987088;28;20589;-72
2023/10/05 05:49:45;;;;;;;15.23;10.32;;;16.80;99.90;;;;;;4991747;28;20036;-72
2023/10/05 05:52:12;;;;;;;14.88;10.63;;;16.80;99.90;;;;;;4990038;28;20440;-71
2023/10/05 05:54:42;;;;;;;16.40;10.95;;;16.90;99.90;;;;;;4993669;28;20026;-72
2023/10/05 05:57:11;;;;;;;16.65;11.27;;;16.80;99.90;;;;;;4988536;28;20069;-72
2023/10/05 05:59:41;;;;;;;17.83;12.57;;;16.80;99.90;;;;;;4988464;28;20050;-72
2023/10/05 06:02:08;;;;;;;16.73;11.23;;;16.90;99.90;;;;;;4990439;28;20030;-71
2023/10/05 06:04:35;;;;;;;14.05;10.52;;;16.90;99.90;;;;;;4987486;28;20034;-71
2023/10/05 06:07:01;;;;;;;13.82;10.70;;;17.00;99.90;;;;;;4991066;28;20144;-71
2023/10/05 06:09:33;;;;;;;15.60;10.27;;;17.10;99.90;;;;;;4991643;28;20248;-72
2023/10/05 06:12:02;;;;;;;15.30;10.65;;;17.10;99.90;;;;;;4988653;28;20493;-71
2023/10/05 06:14:28;;;;;;;17.63;10.25;;;17.10;99.90;;;;;;4986575;28;20041;-72
2023/10/05 06:16:54;;;;;;;15.23;11.60;;;17.10;99.90;;;;;;4992967;28;20030;-71
2023/10/05 06:19:21;;;;;;;20.55;12.13;;;17.10;99.90;;;;;;4987298;28;20049;-71
2023/10/05 06:21:47;;;;;;;17.48;12.23;;;17.20;99.90;;;;;;4994965;28;20033;-71
2023/10/05 06:24:12;;;;;;;20.55;10.30;;;17.20;99.90;;;;;;4988480;28;20062;-71
2023/10/05 06:26:38;;;;;;;16.55;11.25;;;17.20;99.90;;;;;;4988939;28;20038;-71
2023/10/05 06:29:08;;;;;;;16.60;12.00;;;17.30;99.90;;;;;;4990102;28;20030;-71
2023/10/05 06:31:37;;;;;;;17.08;11.57;;;17.40;99.90;;;;;;4991509;28;20068;-73
2023/10/05 06:34:09;;;;;;;17.40;11.27;;;17.50;99.90;;;;;;4994378;28;20428;-72
2023/10/05 06:36:42;;;;;;;16.75;10.68;;;17.60;99.90;;;;;;4989924;28;20022;-71
2023/10/05 06:39:14;;;;;;;16.27;12.18;;;17.60;99.90;;;;;;4988540;28;20040;-71
2023/10/05 06:41:40;;;;;;;16.90;11.52;;;17.70;99.90;;;;;;4989153;28;20635;-72
2023/10/05 06:44:07;;;;;;;16.48;12.27;;;17.70;99.90;;;;;;4991025;28;20046;-72
2023/10/05 06:46:33;;;;;;;16.92;11.65;;;17.70;99.90;;;;;;4987108;28;20030;-71
2023/10/05 06:49:00;;;;;;;17.58;11.38;;;17.80;99.90;;;;;;4986275;28;20036;-72
2023/10/05 06:51:26;;;;;;;22.10;12.02;;;17.80;99.90;;;;;;4994318;28;20112;-72
2023/10/05 06:53:57;;;;;;;18.52;12.15;;;17.80;99.90;;;;;;4985459;28;20038;-72
2023/10/05 06:56:24;;;;;;;17.70;12.05;;;17.80;99.90;;;;;;4984810;28;20026;-71
2023/10/05 06:58:50;;;;;;;18.45;12.20;;;17.90;99.90;;;;;;4988292;28;20061;-72
2023/10/05 07:01:20;;;;;;;15.98;11.20;;;17.90;99.90;;;;;;4990650;28;20033;-72
2023/10/05 07:03:52;;;;;;;19.17;11.55;;;17.90;99.90;;;;;;4984566;28;20026;-71
2023/10/05 07:06:24;;;;;;;17.27;12.43;;;18.00;99.90;;;;;;4983752;28;20037;-72
2023/10/05 07:08:52;;;;;;;17.15;11.02;;;18.10;99.90;;;;;;4988253;28;20045;-72
2023/10/05 07:11:18;;;;;;;17.13;11.52;;;18.20;99.90;;;;;;4985744;28;20092;-72
2023/10/05 07:13:46;;;;;;;20.02;11.43;;;18.20;99.90;;;;;;4983484;28;20034;-72
2023/10/05 07:16:15;;;;;;;15.75;10.70;;;18.20;99.90;;;;;;4985138;28;20092;-72
2023/10/05 07:18:41;;;;;;;16.88;11.95;;;18.40;99.90;;;;;;4985161;28;20026;-72
2023/10/05 07:21:10;;;;;;;16.65;11.50;;;18.50;99.90;;;;;;4983320;28;20085;-72
2023/10/05 07:23:39;;;;;;;19.75;12.45;;;18.70;99.90;;;;;;4983341;28;20045;-74
2023/10/05 07:26:06;;;;;;;16.23;11.70;;;18.80;99.90;;;;;;4984673;28;20366;-72
2023/10/05 07:28:34;;;;;;;18.60;12.48;;;18.90;99.90;;;;;;4986720;28;20045;-72
2023/10/05 07:31:02;;;;;;;16.60;12.13;;;18.80;99.90;;;;;;4986799;28;20113;-72
2023/10/05 07:33:29;;;;;;;16.80;11.90;;;18.80;99.90;;;;;;4988968;28;20027;-73
2023/10/05 07:35:54;;;;;;;16.33;11.63;;;18.70;99.90;;;;;;4995099;28;20071;-70
2023/10/05 07:38:22;;;;;;;17.73;13.05;;;18.90;99.90;;;;;;4988899;28;20082;-71
2023/10/05 07:40:47;;;;;;;17.20;12.50;;;18.90;99.90;;;;;;4986272;28;20033;-70
2023/10/05 07:43:13;;;;;;;16.52;12.30;;;18.80;99.90;;;;;;4985889;28;20027;-72
2023/10/05 07:45:39;;;;;;;20.10;12.95;;;18.80;99.90;;;;;;4989313;28;20461;-71
2023/10/05 07:48:06;;;;;;;17.27;12.15;;;18.90;99.90;;;;;;4987956;28;20501;-72
2023/10/05 07:50:32;;;;;;;19.10;12.93;;;18.90;99.90;;;;;;4985813;28;20081;-72
2023/10/05 07:52:58;;;;;;;18.80;12.73;;;19.10;99.90;;;;;;4994255;28;20127;-72
2023/10/05 07:55:24;;;;;;;20.85;12.63;;;19.10;99.90;;;;;;4985879;28;20073;-71
2023/10/05 07:57:53;;;;;;;18.17;12.90;;;19.10;99.90;;;;;;4986255;28;20420;-72
2023/10/05 08:00:20;;;;;;;18.50;12.43;;;19.20;99.90;;;;;;4986502;28;20054;-71
2023/10/05 08:02:46;;;;;;;17.45;12.45;;;19.20;99.90;;;;;;4989681;28;20646;-72
2023/10/05 08:05:12;;;;;;;18.40;13.02;;;19.20;99.90;;;;;;4988537;28;20026;-73
2023/10/05 08:07:39;;;;;;;17.52;12.00;;;19.30;99.90;;;;;;4988996;28;20457;-72
2023/10/05 08:10:19;;;;;;;16.27;12.10;;;19.50;99.90;;;;;;5000966;28;20034;-72
2023/10/05 08:12:45;;;;;;;18.77;12.57;;;19.50;99.90;;;;;;4989485;28;20125;-72
2023/10/05 08:15:18;;;;;;;17.30;11.45;;;19.50;99.90;;;;;;4987463;28;20358;-72
2023/10/05 08:17:48;;;;;;;17.38;11.80;;;19.50;99.90;;;;;;4994872;28;20061;-72
2023/10/05 08:20:15;;;;;;;20.60;12.43;;;19.60;99.90;;;;;;4988519;28;20034;-73
2023/10/05 08:22:41;;;;;;;15.40;11.13;;;19.80;99.90;;;;;;4989156;28;20380;-72
2023/10/05 08:25:11;;;;;;;26.40;12.73;;;19.80;99.90;;;;;;4986352;28;20029;-72
2023/10/05 08:27:44;;;;;;;16.13;12.02;;;19.90;99.90;;;;;;4985561;28;20028;-72
2023/10/05 08:30:12;;;;;;;16.85;12.35;;;19.60;99.90;;;;;;4984473;28;20137;-72
2023/10/05 08:32:39;;;;;;;18.52;12.80;;;19.70;99.90;;;;;;4991666;28;20116;-72
2023/10/05 08:35:15;;;;;;;16.35;11.55;;;19.80;99.90;;;;;;4987975;28;20121;-73
2023/10/05 08:37:48;;;;;;;16.90;12.50;;;19.90;99.90;;;;;;4985744;28;20492;-73
2023/10/05 08:40:58;;;;;;;20.53;13.70;;;20.00;99.90;;;;;;4985012;28;20022;-72
2023/10/05 08:43:10;;;;;;;26.17;12.60;;;20.10;99.90;;;;;;4980516;28;20092;-73
2023/10/05 08:45:46;;;;;;;18.10;12.52;;;20.20;99.90;;;;;;4984295;28;20041;-72
2023/10/05 08:48:18;;;;;;;20.20;13.65;;;20.20;99.90;;;;;;4968920;28;20093;-72
2023/10/05 08:50:46;;;;;;;19.33;12.40;;;20.20;99.90;;;;;;4987179;28;20030;-73
2023/10/05 08:53:13;;;;;;;17.20;12.27;;;20.20;99.90;;;;;;4985197;28;20038;-72
2023/10/05 08:55:42;;;;;;;17.65;11.63;;;20.20;99.90;;;;;;4986392;28;20037;-72
2023/10/05 08:58:09;;;;;;;17.95;12.27;;;20.10;99.90;;;;;;4983744;28;20033;-72
2023/10/05 09:00:38;;;;;;;16.45;10.95;;;20.20;99.90;;;;;;4988874;28;20045;-72
2023/10/05 09:03:29;;;;;;;17.27;11.82;;;20.10;99.90;;;;;;4985066;28;20054;-71
2023/10/05 09:06:15;;;;;;;15.45;11.15;;;20.20;99.90;;;;;;4984900;28;20038;-71
2023/10/05 09:08:51;;;;;;;16.33;10.63;;;20.50;99.90;;;;;;4985537;28;20034;-72
2023/10/05 09:11:26;;;;;;;17.88;12.50;;;20.60;99.90;;;;;;4986117;28;20492;-72
2023/10/05 09:13:52;;;;;;;19.23;11.98;;;20.60;99.90;;;;;;4984253;28;20069;-72
2023/10/05 09:16:30;;;;;;;18.02;11.45;;;20.40;99.90;;;;;;4984431;28;20104;-72
2023/10/05 09:18:57;;;;;;;14.45;10.85;;;20.40;99.90;;;;;;4989004;28;25319;-71
2023/10/05 09:21:42;;;;;;;18.08;10.95;;;20.30;99.90;;;;;;4986501;28;20125;-71
2023/10/05 09:24:24;;;;;;;17.35;10.88;;;20.40;99.90;;;;;;4992083;28;20121;-72
2023/10/05 09:27:19;;;;;;;17.77;11.75;;;20.50;99.90;;;;;;4983219;28;20026;-72
2023/10/05 09:29:45;;;;;;;;;;;20.60;99.90;;;;;;4982082;28;20026;-72
2023/10/05 09:32:25;;;;;;;15.98;11.63;;;20.60;99.90;;;;;;4981145;28;19917;-72
2023/10/05 09:34:56;;;;;;;18.00;11.15;;;20.70;99.90;;;;;;4989264;28;20044;-73
2023/10/05 09:37:24;;;;;;;16.35;11.77;;;20.90;99.90;;;;;;4984677;28;20429;-72
2023/10/05 09:39:53;;;;;;;16.33;10.70;;;20.90;99.90;;;;;;4987839;28;20038;-72
2023/10/05 09:42:26;;;;;;;16.30;10.50;;;21.00;99.90;;;;;;4987128;28;20053;-72
2023/10/05 09:45:06;;;;;;;18.38;11.57;;;21.20;99.90;;;;;;4991240;28;20022;-72
2023/10/05 09:47:35;;;;;;;15.05;11.30;;;21.10;99.90;;;;;;4990939;28;20030;-72
2023/10/05 09:50:12;;;;;;;17.17;10.43;;;21.00;99.90;;;;;;4984705;28;20072;-72
2023/10/05 09:52:46;;;;;;;17.63;10.32;;;21.00;99.90;;;;;;4985063;28;20026;-71
2023/10/05 09:55:18;;;;;;;17.67;12.00;;;21.10;99.90;;;;;;4983849;28;20035;-72
2023/10/05 09:57:51;;;;;;;18.55;11.98;;;21.10;99.90;;;;;;4983729;28;20049;-72
2023/10/05 10:00:47;;;;;;;17.70;10.90;;;21.10;99.90;;;;;;4984026;28;20075;-72
2023/10/05 10:03:14;;;;;;;14.05;10.23;;;21.10;99.90;;;;;;4983610;28;20328;-71
2023/10/05 10:05:59;;;;;;;15.90;11.00;;;21.10;99.90;;;;;;4986219;28;20073;-71
2023/10/05 10:08:27;;;;;;;16.35;10.88;;;21.10;99.90;;;;;;4988729;28;20090;-72
2023/10/05 10:11:03;;;;;;;16.65;11.40;;;21.20;99.90;;;;;;4988202;28;20023;-71
2023/10/05 10:13:37;;;;;;;17.35;9.98;;;21.40;99.90;;;;;;4976005;28;20476;-72
2023/10/05 10:16:15;;;;;;;17.20;10.98;;;21.30;99.90;;;;;;4980522;28;20030;-72
2023/10/05 10:18:43;;;;;;;17.75;10.48;;;21.60;99.90;;;;;;4985968;28;20041;-71
2023/10/05 10:21:24;;;;;;;15.23;10.52;;;21.60;99.90;;;;;;4983969;28;20044;-71
2023/10/05 10:24:01;;;;;;;19.70;12.18;;;21.70;99.90;;;;;;4987921;28;20088;-72
2023/10/05 10:26:27;;;;;;;15.40;11.30;;;21.90;99.90;;;;;;4988065;28;20608;-71
2023/10/05 10:31:29;;;;;;;16.42;11.48;;;22.00;99.90;;;;;;4987424;28;20500;-72
2023/10/05 10:34:18;;;;;;;16.75;11.13;;;22.00;99.90;;;;;;4989786;28;20026;-72
2023/10/05 10:36:56;;;;;;;16.30;11.35;;;21.90;99.90;;;;;;4989818;28;20041;-72
2023/10/05 10:39:33;;;;;;;17.38;11.60;;;22.00;99.90;;;;;;4988835;28;20042;-72
2023/10/05 10:44:41;;;;;;;18.05;11.40;;;22.10;99.90;;;;;;4985910;28;20064;-72
2023/10/05 10:47:14;;;;;;;16.13;11.18;;;22.10;99.90;;;;;;4984386;28;20026;-72
2023/10/05 10:49:40;;;;;;;15.82;11.13;;;22.30;99.90;;;;;;4983814;28;21224;-73
2023/10/05 10:52:09;;;;;;;12.90;9.63;;;22.30;99.90;;;;;;4989843;28;20100;-72
2023/10/05 10:54:45;;;;;;;16.58;10.43;;;22.40;99.90;;;;;;4989445;28;20023;-72
2023/10/05 10:57:20;;;;;;;16.15;11.00;;;22.40;99.90;;;;;;4986597;28;21551;-72
2023/10/05 10:59:46;;;;;;;28.73;11.30;;;22.50;99.90;;;;;;4986189;28;20074;-71
2023/10/05 11:02:19;;;;;;;16.25;10.57;;;22.70;99.90;;;;;;4987595;28;20128;-73
2023/10/05 11:04:47;;;;;;;14.68;10.27;;;22.70;99.90;;;;;;4987213;28;20054;-73
2023/10/05 11:07:13;;;;;;;17.02;11.52;;;22.80;99.90;;;;;;4986524;28;20038;-71
2023/10/05 11:09:48;;;;;;;21.00;10.05;;;22.50;99.90;;;;;;4987194;28;20030;-74
2023/10/05 11:12:20;;;;;;;16.20;10.73;;;22.60;99.90;;;;;;4990954;28;20148;-73
2023/10/05 11:14:47;;;;;;;19.20;10.75;;;22.80;99.90;;;;;;4985490;28;20018;-73
2023/10/05 11:17:31;;;;;;;14.05;8.95;;;22.70;99.90;;;;;;4992811;28;20026;-73
2023/10/05 11:20:14;;;;;;;13.93;10.27;;;22.70;99.90;;;;;;4992400;28;20391;-73
2023/10/05 11:22:42;;;;;;;15.23;10.40;;;22.90;99.90;;;;;;4984550;28;20034;-72
2023/10/05 11:25:15;;;;;;;13.65;10.30;;;23.20;99.90;;;;;;4985968;28;20033;-74
2023/10/05 11:27:55;;;;;;;15.88;10.60;;;23.20;99.90;;;;;;4986353;28;20029;-72
2023/10/05 11:30:22;;;;;;;15.65;9.50;;;22.90;99.90;;;;;;4986780;28;20041;-73
2023/10/05 11:32:54;;;;;;;14.40;10.15;;;22.90;99.90;;;;;;4985425;28;20042;-73
2023/10/05 11:35:28;;;;;;;15.05;9.63;;;23.10;99.90;;;;;;4985625;28;20133;-74
2023/10/05 11:38:05;;;;;;;15.48;10.00;;;23.00;99.90;;;;;;4994456;28;20041;-75
2023/10/05 11:40:34;;;;;;;14.07;10.50;;;22.80;99.90;;;;;;4987493;28;20102;-73
2023/10/05 11:43:04;;;;;;;15.10;10.50;;;23.00;99.90;;;;;;4985572;28;20089;-73
2023/10/05 11:45:31;;;;;;;13.48;10.05;;;23.00;99.90;;;;;;4986172;28;20034;-72
2023/10/05 11:47:57;;;;;;;13.80;10.43;;;22.80;99.90;;;;;;4986464;28;20061;-73
2023/10/05 11:50:32;;;;;;;16.88;10.45;;;23.00;99.90;;;;;;4986988;28;20061;-72
2023/10/05 11:52:59;;;;;;;14.30;11.05;;;23.20;99.90;;;;;;4985971;28;20034;-72
2023/10/05 11:55:25;;;;;;;12.68;9.60;;;23.20;99.90;;;;;;4986993;28;20037;-72
2023/10/05 11:57:52;;;;;;;23.23;10.90;;;23.40;99.90;;;;;;4987088;28;20034;-72
2023/10/05 12:00:18;;;;;;;12.10;9.55;;;23.40;99.90;;;;;;4986960;28;20140;-71
2023/10/05 12:02:44;;;;;;;12.77;10.30;;;23.30;99.90;;;;;;4985372;28;20038;-73
2023/10/05 12:05:11;;;;;;;17.70;9.18;;;23.30;99.90;;;;;;4984445;28;20018;-72
2023/10/05 12:07:41;;;;;;;15.13;10.88;;;23.40;99.90;;;;;;4987810;28;20031;-72
2023/10/05 12:10:13;;;;;;;12.55;9.68;;;23.60;99.90;;;;;;4983007;28;20014;-72
2023/10/05 12:12:48;;;;;;;15.10;10.32;;;23.50;99.90;;;;;;4983392;28;20038;-71
2023/10/05 12:15:17;;;;;;;14.63;9.35;;;23.50;99.90;;;;;;4990185;28;20711;-71
2023/10/05 12:17:45;;;;;;;13.90;9.73;;;23.80;99.90;;;;;;4981635;28;20069;-72
2023/10/05 12:20:15;;;;;;;12.77;9.10;;;23.90;99.90;;;;;;4981718;28;20455;-72
2023/10/05 12:22:41;;;;;;;13.10;9.48;;;23.90;99.90;;;;;;4991612;28;20558;-72
2023/10/05 12:25:08;;;;;;;18.25;9.88;;;24.00;99.90;;;;;;4982781;28;20564;-72
2023/10/05 12:27:35;;;;;;;13.95;10.43;;;24.00;99.90;;;;;;4981606;28;20026;-72
2023/10/05 12:30:10;;;;;;;14.90;9.57;;;24.10;99.90;;;;;;4982761;28;20030;-72
2023/10/05 12:32:39;;;;;;;14.38;9.68;;;24.10;99.70;;;;;;4990144;28;20654;-72
2023/10/05 12:35:16;;;;;;;13.63;9.68;;;24.10;99.70;;;;;;4982381;28;20041;-72
2023/10/05 12:37:46;;;;;;;12.35;8.68;;;24.30;99.80;;;;;;4984072;28;20043;-72
2023/10/05 12:40:18;;;;;;;14.38;9.30;;;24.40;99.00;;;;;;4987133;28;20299;-72
2023/10/05 12:42:54;;;;;;;14.85;8.95;;;24.40;98.50;;;;;;4989123;28;20138;-72
2023/10/05 12:45:22;;;;;;;12.93;9.00;;;24.20;98.90;;;;;;4982120;28;20069;-71
2023/10/05 12:47:57;;;;;;;12.43;8.85;;;24.10;99.10;;;;;;4982384;28;20409;-72
2023/10/05 12:50:26;;;;;;;16.52;9.30;;;24.10;99.30;;;;;;4981994;28;20387;-72
2023/10/05 12:52:52;;;;;;;15.05;10.18;;;24.00;99.10;;;;;;4983195;28;20074;-72
2023/10/05 12:55:19;;;;;;;14.93;9.88;;;23.90;99.50;;;;;;4982579;28;20526;-72
2023/10/05 12:57:50;;;;;;;19.48;11.05;;;23.80;99.90;;;;;;4981443;28;20547;-73
2023/10/05 13:00:19;;;;;;;14.27;9.30;;;23.80;99.70;;;;;;4981690;28;20050;-72
2023/10/05 13:02:52;;;;;;;24.75;10.13;;;23.80;99.90;;;;;;4988042;28;20080;-72
2023/10/05 13:05:23;;;;;;;17.08;10.48;;;23.80;99.90;;;;;;4981248;28;20034;-72
2023/10/05 13:07:50;;;;;;;13.98;10.02;;;23.80;99.90;;;;;;4981199;28;20033;-72